Time;durP1;ratioP1;P1;durP2;ratioP2;P2;SDS_P1;SDS_P2;PMS_P1;PMS_P2;Temp;Humidity;BMP_temperature;BMP_pressure;BME280_temperature;BME280_humidity;BME280_pressure;Samples;Min_cycle;Max_cycle;Signal;HPM_P1;HPM_P2
2023/05/18 00:00:20;;;;;;;0.00;0.00;;;6.00;99.90;;;;;;5037553;28;20052;-82
2023/05/18 00:02:49;;;;;;;0.10;0.10;;;6.00;99.90;;;;;;5035320;28;20073;-81
2023/05/18 00:05:17;;;;;;;0.08;0.05;;;6.00;99.90;;;;;;5037863;28;20061;-81
2023/05/18 00:07:43;;;;;;;0.00;0.00;;;5.90;99.90;;;;;;5036414;28;20049;-83
2023/05/18 00:10:09;;;;;;;0.28;0.28;;;5.90;99.90;;;;;;5049147;28;20336;-81
2023/05/18 00:12:35;;;;;;;0.00;0.00;;;5.80;99.90;;;;;;5049740;28;20119;-81
2023/05/18 00:15:01;;;;;;;0.10;0.10;;;5.70;99.90;;;;;;5050312;28;20077;-82
2023/05/18 00:17:27;;;;;;;0.10;0.10;;;5.60;99.90;;;;;;5049313;28;20504;-81
2023/05/18 00:19:52;;;;;;;0.00;0.00;;;5.60;99.90;;;;;;5049745;28;20018;-82
2023/05/18 00:22:18;;;;;;;0.40;0.40;;;5.50;99.90;;;;;;5048985;28;20018;-82
2023/05/18 00:24:45;;;;;;;0.00;0.00;;;5.50;99.90;;;;;;5049024;28;20032;-81
2023/05/18 00:27:11;;;;;;;1.13;0.85;;;6.30;99.90;;;;;;5037286;28;20038;-83
2023/05/18 00:29:36;;;;;;;0.00;0.00;;;5.60;99.90;;;;;;5031422;28;20045;-82
2023/05/18 00:32:02;;;;;;;0.17;0.17;;;5.60;99.90;;;;;;5031555;28;20049;-81
2023/05/18 00:34:28;;;;;;;0.00;0.00;;;5.60;99.90;;;;;;5031977;28;20048;-82
2023/05/18 00:36:53;;;;;;;0.00;0.00;;;5.70;99.90;;;;;;5032316;28;20051;-82
2023/05/18 00:39:19;;;;;;;0.00;0.00;;;5.90;1.00;;;;;;5032904;28;20516;-84
2023/05/18 00:41:45;;;;;;;0.20;0.20;;;5.90;44.80;;;;;;5032220;28;20502;-82
2023/05/18 00:44:11;;;;;;;0.08;0.08;;;6.00;1.00;;;;;;5033434;28;20496;-81
2023/05/18 00:46:37;;;;;;;0.00;0.00;;;6.00;1.00;;;;;;5033389;28;20508;-83
2023/05/18 00:49:02;;;;;;;0.10;0.10;;;6.00;1.00;;;;;;5033521;28;20046;-81
2023/05/18 00:51:33;;;;;;;0.00;0.00;;;6.00;1.00;;;;;;5033747;28;20053;-80
2023/05/18 00:54:01;;;;;;;0.00;0.00;;;6.00;1.00;;;;;;5032967;28;20103;-81
2023/05/18 00:56:27;;;;;;;0.05;0.05;;;6.00;1.00;;;;;;5034879;28;20095;-81
2023/05/18 00:58:55;;;;;;;0.05;0.05;;;6.00;1.00;;;;;;5033788;28;20061;-83
2023/05/18 01:01:29;;;;;;;0.00;0.00;;;6.00;1.00;;;;;;5030372;28;20042;-83
2023/05/18 01:04:01;;;;;;;0.00;0.00;;;6.00;99.90;;;;;;5031707;28;20052;-82
2023/05/18 01:06:36;;;;;;;0.52;0.43;;;6.00;99.90;;;;;;5031724;28;20060;-82
2023/05/18 01:09:05;;;;;;;0.00;0.00;;;6.00;1.00;;;;;;5032948;28;20055;-82
2023/05/18 01:12:02;;;;;;;0.13;0.13;;;6.00;1.00;;;;;;5034149;28;20046;-82
2023/05/18 01:14:34;;;;;;;0.00;0.00;;;6.10;99.90;;;;;;5032975;28;20088;-81
2023/05/18 01:17:38;;;;;;;0.00;0.00;;;6.10;99.90;;;;;;5032814;28;20101;-82
2023/05/18 01:20:32;;;;;;;0.00;0.00;;;6.20;99.90;;;;;;5001440;28;20707;-81
2023/05/18 01:23:22;;;;;;;0.00;0.00;;;6.20;1.00;;;;;;5033296;28;20495;-82
2023/05/18 01:25:52;;;;;;;0.03;0.03;;;6.20;99.90;;;;;;5033126;28;20128;-82
2023/05/18 01:28:31;;;;;;;0.00;0.00;;;6.20;99.90;;;;;;5033375;28;20075;-82
2023/05/18 01:30:57;;;;;;;0.00;0.00;;;6.30;1.00;;;;;;5032123;28;20080;-82
2023/05/18 01:33:24;;;;;;;0.00;0.00;;;6.20;99.90;;;;;;5032195;28;20052;-82
2023/05/18 01:35:50;;;;;;;0.00;0.00;;;6.30;99.90;;;;;;5037614;28;20053;-82
2023/05/18 01:38:21;;;;;;;0.00;0.00;;;6.30;1.00;;;;;;5047872;28;20049;-81
2023/05/18 01:40:58;;;;;;;0.00;0.00;;;6.30;1.00;;;;;;5050000;28;20044;-82
2023/05/18 01:43:32;;;;;;;0.00;0.00;;;6.30;1.00;;;;;;5040475;28;20067;-81
2023/05/18 01:46:06;;;;;;;0.00;0.00;;;6.30;1.00;;;;;;5052843;28;20045;-82
2023/05/18 01:48:36;;;;;;;0.00;0.00;;;6.30;99.90;;;;;;5052030;28;20083;-81
2023/05/18 01:51:04;;;;;;;0.00;0.00;;;6.30;99.90;;;;;;5036864;28;20045;-82
2023/05/18 01:53:39;;;;;;;0.00;0.00;;;6.30;99.90;;;;;;5031700;28;20056;-81
2023/05/18 01:56:07;;;;;;;0.35;0.32;;;6.50;99.90;;;;;;5034496;28;20056;-82
2023/05/18 01:58:35;;;;;;;0.00;0.00;;;6.60;99.90;;;;;;5049895;28;20057;-83
2023/05/18 02:01:01;;;;;;;0.00;0.00;;;6.60;99.90;;;;;;5051369;28;20045;-82
2023/05/18 02:03:27;;;;;;;0.00;0.00;;;6.60;1.00;;;;;;5050969;28;20132;-82
2023/05/18 02:05:52;;;;;;;0.00;0.00;;;6.60;1.00;;;;;;5047595;28;20134;-82
2023/05/18 02:08:18;;;;;;;0.00;0.00;;;6.60;92.50;;;;;;5035057;28;20052;-82
2023/05/18 02:10:44;;;;;;;0.00;0.00;;;6.50;1.00;;;;;;5030483;28;20650;-81
2023/05/18 02:13:09;;;;;;;0.00;0.00;;;6.50;1.00;;;;;;5029711;28;20099;-82
2023/05/18 02:15:35;;;;;;;10.88;1.02;;;6.50;1.00;;;;;;5030610;28;20409;-83
2023/05/18 02:18:01;;;;;;;0.47;0.22;;;6.50;1.00;;;;;;5030421;28;20049;-82
2023/05/18 02:20:31;;;;;;;0.00;0.00;;;6.50;8.50;;;;;;5029956;28;20049;-83
2023/05/18 02:22:57;;;;;;;0.00;0.00;;;6.40;83.20;;;;;;5029505;28;20535;-82
2023/05/18 02:25:22;;;;;;;0.00;0.00;;;6.40;1.00;;;;;;5029118;28;20041;-83
2023/05/18 02:27:48;;;;;;;0.00;0.00;;;6.40;99.90;;;;;;5028504;28;20045;-82
2023/05/18 02:30:14;;;;;;;0.00;0.00;;;6.50;99.90;;;;;;5029738;28;20049;-81
2023/05/18 02:32:41;;;;;;;0.10;0.10;;;6.50;99.90;;;;;;5029571;28;20052;-81
2023/05/18 02:35:08;;;;;;;0.00;0.00;;;7.30;99.90;;;;;;5027739;28;20050;-81
2023/05/18 02:37:38;;;;;;;6.22;1.30;;;6.60;99.90;;;;;;5028850;28;20038;-81
2023/05/18 02:40:11;;;;;;;0.00;0.00;;;6.60;99.90;;;;;;5040976;28;20045;-81
2023/05/18 02:42:37;;;;;;;7.13;1.13;;;6.60;99.90;;;;;;5066728;28;20057;-81
2023/05/18 02:45:03;;;;;;;0.00;0.00;;;6.60;1.00;;;;;;5068061;28;20036;-80
2023/05/18 02:47:28;;;;;;;0.00;0.00;;;6.60;99.90;;;;;;5069142;28;20089;-81
2023/05/18 02:49:54;;;;;;;0.52;0.45;;;6.60;99.90;;;;;;5067729;28;20047;-81
2023/05/18 02:52:20;;;;;;;0.00;0.00;;;6.60;99.90;;;;;;5067521;28;20347;-83
2023/05/18 02:54:45;;;;;;;0.00;0.00;;;7.70;1.00;;;;;;5060644;28;20073;-81
2023/05/18 02:57:12;;;;;;;0.10;0.10;;;6.60;99.90;;;;;;5049491;28;20147;-82
2023/05/18 02:59:38;;;;;;;0.85;0.73;;;6.60;1.00;;;;;;5051499;28;20104;-82
2023/05/18 03:02:04;;;;;;;0.65;0.65;;;6.60;99.90;;;;;;5050861;28;20048;-82
2023/05/18 03:04:30;;;;;;;0.00;0.00;;;6.60;99.90;;;;;;5051420;28;20048;-82
2023/05/18 03:06:57;;;;;;;0.00;0.00;;;7.10;99.90;;;;;;5051734;28;20055;-81
2023/05/18 03:09:23;;;;;;;0.40;0.40;;;6.80;1.00;;;;;;5051504;28;20059;-82
2023/05/18 03:11:50;;;;;;;0.10;0.10;;;6.70;99.90;;;;;;5052242;28;20448;-82
2023/05/18 03:14:16;;;;;;;0.63;0.28;;;6.70;99.90;;;;;;5049690;28;20049;-82
2023/05/18 03:16:41;;;;;;;0.20;0.20;;;6.80;99.90;;;;;;5052596;28;20150;-82
2023/05/18 03:19:07;;;;;;;0.13;0.13;;;6.80;99.90;;;;;;5051497;28;20044;-81
2023/05/18 03:21:34;;;;;;;0.00;0.00;;;6.80;99.90;;;;;;5052425;28;20045;-82
2023/05/18 03:24:01;;;;;;;0.03;0.03;;;6.80;99.90;;;;;;5052417;28;20056;-82
2023/05/18 03:26:29;;;;;;;0.00;0.00;;;6.80;99.90;;;;;;5055871;28;20242;-82
2023/05/18 03:28:56;;;;;;;0.10;0.10;;;6.80;99.90;;;;;;5057096;28;20049;-82
2023/05/18 03:31:21;;;;;;;0.32;0.32;;;6.80;99.90;;;;;;5056689;28;20048;-82
2023/05/18 03:33:47;;;;;;;0.10;0.10;;;6.80;99.90;;;;;;5057283;28;20045;-82
2023/05/18 03:36:13;;;;;;;0.28;0.28;;;6.70;99.90;;;;;;5056496;28;20049;-82
2023/05/18 03:38:40;;;;;;;0.00;0.00;;;6.70;1.00;;;;;;5056787;28;20101;-83
2023/05/18 03:41:06;;;;;;;0.15;0.15;;;6.70;1.00;;;;;;5055759;28;20048;-82
2023/05/18 03:43:31;;;;;;;0.03;0.03;;;6.70;99.90;;;;;;5056793;28;20399;-82
2023/05/18 03:45:57;;;;;;;0.10;0.10;;;6.70;97.20;;;;;;5055682;28;20507;-82
2023/05/18 03:48:23;;;;;;;0.00;0.00;;;6.70;99.90;;;;;;5056712;28;20049;-83
2023/05/18 03:50:49;;;;;;;1.55;0.88;;;6.70;99.90;;;;;;5056423;28;20044;-81
2023/05/18 03:53:17;;;;;;;0.00;0.00;;;6.70;1.00;;;;;;5056533;28;20041;-81
2023/05/18 03:55:44;;;;;;;0.00;0.00;;;6.70;99.90;;;;;;5056694;28;20503;-81
2023/05/18 03:58:10;;;;;;;0.00;0.00;;;6.70;15.40;;;;;;5056196;28;20056;-82
2023/05/18 04:00:35;;;;;;;0.00;0.00;;;6.70;1.00;;;;;;5056628;28;20037;-82
2023/05/18 04:03:04;;;;;;;0.00;0.00;;;6.80;99.90;;;;;;5058013;28;20044;-82
2023/05/18 04:05:30;;;;;;;0.00;0.00;;;6.80;1.00;;;;;;5057030;28;20460;-83
2023/05/18 04:07:56;;;;;;;0.00;0.00;;;6.80;99.90;;;;;;5055142;28;20045;-83
2023/05/18 04:10:22;;;;;;;0.00;0.00;;;6.80;99.90;;;;;;5056161;28;20422;-83
2023/05/18 04:12:48;;;;;;;0.00;0.00;;;6.90;6.20;;;;;;5055387;28;20036;-82
2023/05/18 04:15:13;;;;;;;0.00;0.00;;;7.20;1.00;;;;;;5055977;28;20144;-81
2023/05/18 04:17:44;;;;;;;0.00;0.00;;;7.00;1.00;;;;;;5055319;28;20097;-82
2023/05/18 04:20:12;;;;;;;0.00;0.00;;;7.10;1.00;;;;;;5054303;28;20049;-82
2023/05/18 04:22:42;;;;;;;0.00;0.00;;;7.20;99.90;;;;;;5054545;28;20064;-81
2023/05/18 04:25:10;;;;;;;0.00;0.00;;;7.20;99.90;;;;;;5054424;28;20052;-82
2023/05/18 04:27:37;;;;;;;0.20;0.20;;;7.30;99.90;;;;;;5055444;28;20040;-81
2023/05/18 04:30:03;;;;;;;0.10;0.10;;;7.40;99.90;;;;;;5055125;28;20108;-81
2023/05/18 04:32:29;;;;;;;0.00;0.00;;;7.50;99.90;;;;;;5055039;28;20073;-82
2023/05/18 04:34:57;;;;;;;0.10;0.10;;;7.50;99.90;;;;;;5053245;28;20060;-82
2023/05/18 04:37:23;;;;;;;0.00;0.00;;;7.50;99.90;;;;;;5053003;28;20450;-82
2023/05/18 04:39:49;;;;;;;0.13;0.13;;;7.60;99.90;;;;;;5051870;28;20094;-81
2023/05/18 04:42:17;;;;;;;0.75;0.20;;;7.60;99.90;;;;;;5052639;28;20045;-83
2023/05/18 04:44:42;;;;;;;0.47;0.47;;;7.70;99.90;;;;;;5052006;28;20049;-82
2023/05/18 04:47:08;;;;;;;0.00;0.00;;;7.70;68.00;;;;;;5052895;28;20066;-82
2023/05/18 04:49:34;;;;;;;0.17;0.10;;;7.80;49.80;;;;;;5053864;28;20037;-81
2023/05/18 04:52:00;;;;;;;0.32;0.32;;;7.90;69.40;;;;;;5052675;28;20506;-81
2023/05/18 04:54:29;;;;;;;0.22;0.13;;;8.00;53.30;;;;;;5053012;28;20314;-82
2023/05/18 04:56:55;;;;;;;0.00;0.00;;;8.20;57.90;;;;;;5053345;28;20060;-81
2023/05/18 04:59:25;;;;;;;0.00;0.00;;;8.10;21.80;;;;;;5054296;28;20045;-82
2023/05/18 05:01:53;;;;;;;24.10;0.45;;;8.20;1.50;;;;;;5053735;28;20077;-82
2023/05/18 05:04:22;;;;;;;0.00;0.00;;;8.20;1.00;;;;;;5054681;28;20041;-82
2023/05/18 05:06:48;;;;;;;1.55;0.57;;;8.20;1.00;;;;;;5054631;28;20115;-82
2023/05/18 05:09:14;;;;;;;0.28;0.28;;;8.30;4.10;;;;;;5053864;28;20449;-81
2023/05/18 05:11:40;;;;;;;0.08;0.08;;;9.20;1.00;;;;;;5050895;28;20052;-82
2023/05/18 05:14:06;;;;;;;0.00;0.00;;;8.40;1.00;;;;;;5046145;28;20052;-82
2023/05/18 05:16:32;;;;;;;0.75;0.35;;;8.40;1.00;;;;;;5045462;28;20551;-81
2023/05/18 05:18:58;;;;;;;0.40;0.40;;;8.40;1.00;;;;;;5045920;28;20033;-80
2023/05/18 05:21:24;;;;;;;0.10;0.10;;;8.50;1.00;;;;;;5045796;28;20522;-81
2023/05/18 05:23:50;;;;;;;0.00;0.00;;;8.60;1.00;;;;;;5046847;28;20123;-81
2023/05/18 05:26:16;;;;;;;0.00;0.00;;;8.60;1.00;;;;;;5058134;28;20095;-81
2023/05/18 05:28:41;;;;;;;0.90;0.68;;;8.70;1.00;;;;;;5044586;28;20056;-81
2023/05/18 05:31:08;;;;;;;0.80;0.43;;;8.80;1.00;;;;;;5047571;28;20045;-81
2023/05/18 05:33:34;;;;;;;0.00;0.00;;;8.90;1.00;;;;;;5069319;28;20351;-81
2023/05/18 05:36:00;;;;;;;0.10;0.10;;;8.90;1.00;;;;;;5070822;28;20046;-81
2023/05/18 05:38:25;;;;;;;0.17;0.17;;;8.90;1.00;;;;;;5070862;28;20033;-82
2023/05/18 05:40:51;;;;;;;0.10;0.00;;;9.30;1.00;;;;;;5070454;28;20063;-81
2023/05/18 05:43:17;;;;;;;0.50;0.47;;;9.00;1.00;;;;;;5069905;28;20021;-81
2023/05/18 05:45:42;;;;;;;0.00;0.00;;;9.20;1.00;;;;;;5069492;28;20413;-82
2023/05/18 05:48:08;;;;;;;0.10;0.10;;;9.20;1.00;;;;;;5060396;28;20053;-81
2023/05/18 05:50:34;;;;;;;0.00;0.00;;;9.30;1.00;;;;;;5049137;28;20530;-81
2023/05/18 05:53:00;;;;;;;0.00;0.00;;;9.50;1.00;;;;;;5051044;28;20045;-81
2023/05/18 05:55:26;;;;;;;0.32;0.10;;;9.60;1.00;;;;;;5052106;28;20348;-82
2023/05/18 05:57:52;;;;;;;0.00;0.00;;;9.90;1.00;;;;;;5033674;28;20084;-81
2023/05/18 06:00:19;;;;;;;0.30;0.20;;;10.40;1.00;;;;;;5051319;28;20057;-82
2023/05/18 06:02:44;;;;;;;0.00;0.00;;;10.40;1.00;;;;;;5050628;28;20495;-82
2023/05/18 06:05:10;;;;;;;0.00;0.00;;;10.30;1.00;;;;;;5049029;28;20045;-81
2023/05/18 06:07:36;;;;;;;0.08;0.08;;;10.40;1.00;;;;;;5050822;28;20047;-82
2023/05/18 06:10:02;;;;;;;0.30;0.30;;;10.50;1.00;;;;;;5049129;28;20092;-81
2023/05/18 06:12:28;;;;;;;0.30;0.17;;;10.70;1.00;;;;;;5049668;28;20045;-82
2023/05/18 06:14:57;;;;;;;0.13;0.13;;;10.90;1.00;;;;;;5030290;28;20045;-82
2023/05/18 06:17:24;;;;;;;0.00;0.00;;;11.20;1.00;;;;;;5031182;28;20049;-82
2023/05/18 06:19:50;;;;;;;0.25;0.25;;;11.40;1.00;;;;;;5031267;28;20045;-82
2023/05/18 06:22:15;;;;;;;0.20;0.13;;;11.30;1.00;;;;;;5011653;28;20140;-82
2023/05/18 06:24:41;;;;;;;0.00;0.00;;;11.50;1.00;;;;;;5030900;28;20052;-82
2023/05/18 06:27:07;;;;;;;0.28;0.20;;;11.70;1.00;;;;;;5029859;28;20066;-82
2023/05/18 06:29:33;;;;;;;1.85;0.75;;;11.90;1.00;;;;;;5036460;28;20056;-83
2023/05/18 06:31:59;;;;;;;0.00;0.00;;;11.80;1.00;;;;;;5050371;28;20259;-82
2023/05/18 06:34:24;;;;;;;0.00;0.00;;;11.90;1.00;;;;;;5053458;28;20707;-82
2023/05/18 06:36:50;;;;;;;0.75;0.43;;;12.10;1.00;;;;;;5053073;28;20061;-81
2023/05/18 06:39:27;;;;;;;0.00;0.00;;;12.50;1.00;;;;;;5053209;28;20108;-82
2023/05/18 06:41:56;;;;;;;0.10;0.00;;;12.60;1.00;;;;;;5052798;28;20276;-81
2023/05/18 06:44:21;;;;;;;0.00;0.00;;;12.40;1.00;;;;;;5053648;28;20048;-83
2023/05/18 06:46:47;;;;;;;0.00;0.00;;;12.30;1.00;;;;;;5055791;28;20059;-82
2023/05/18 06:49:14;;;;;;;0.00;0.00;;;12.60;1.00;;;;;;5055163;28;20072;-82
2023/05/18 06:51:42;;;;;;;0.82;0.57;;;13.00;1.00;;;;;;5054451;28;20040;-83
2023/05/18 06:54:08;;;;;;;0.00;0.00;;;13.20;1.00;;;;;;5052789;28;20690;-83
2023/05/18 06:56:33;;;;;;;1.17;0.52;;;13.50;1.00;;;;;;5054200;28;20052;-83
2023/05/18 06:58:59;;;;;;;0.05;0.05;;;13.70;1.00;;;;;;5054053;28;20060;-82
2023/05/18 07:01:25;;;;;;;0.17;0.10;;;13.70;1.00;;;;;;5052313;28;20052;-82
2023/05/18 07:03:51;;;;;;;0.00;0.00;;;13.50;1.00;;;;;;5054154;28;20048;-82
2023/05/18 07:06:16;;;;;;;0.75;0.52;;;13.80;1.00;;;;;;5054233;28;20136;-82
2023/05/18 07:08:43;;;;;;;0.00;0.00;;;14.60;1.00;;;;;;5053902;28;20375;-83
2023/05/18 07:11:08;;;;;;;0.15;0.15;;;14.30;1.00;;;;;;5054431;28;20096;-82
2023/05/18 07:13:34;;;;;;;0.25;0.15;;;15.60;1.00;;;;;;5054874;28;20072;-82
2023/05/18 07:16:00;;;;;;;0.28;0.28;;;15.20;1.00;;;;;;5052792;28;20372;-82
2023/05/18 07:18:25;;;;;;;0.88;0.63;;;15.30;1.00;;;;;;5055505;28;20190;-81
2023/05/18 07:20:51;;;;;;;0.17;0.17;;;16.00;1.00;;;;;;5046331;28;20048;-81
2023/05/18 07:23:16;;;;;;;0.08;0.08;;;15.60;1.00;;;;;;5052394;28;20590;-81
2023/05/18 07:25:42;;;;;;;0.20;0.20;;;14.90;1.00;;;;;;5051773;28;20059;-81
2023/05/18 07:28:08;;;;;;;0.00;0.00;;;13.90;99.90;;;;;;5037707;28;20076;-83
2023/05/18 07:30:34;;;;;;;0.30;0.15;;;13.90;99.90;;;;;;5032565;28;20057;-82
2023/05/18 07:32:59;;;;;;;1.65;0.63;;;13.90;99.90;;;;;;5031305;28;20053;-82
2023/05/18 07:35:25;;;;;;;0.00;0.00;;;13.80;99.90;;;;;;5033053;28;20046;-82
2023/05/18 07:37:52;;;;;;;0.00;0.00;;;13.70;1.00;;;;;;5034827;28;20265;-81
2023/05/18 07:40:19;;;;;;;0.00;0.00;;;13.70;99.90;;;;;;5029223;28;20132;-82
2023/05/18 07:42:45;;;;;;;0.20;0.10;;;13.60;99.90;;;;;;5028441;28;20557;-82
2023/05/18 07:45:11;;;;;;;0.00;0.00;;;13.60;99.90;;;;;;5037343;28;20446;-82
2023/05/18 07:47:37;;;;;;;0.00;0.00;;;13.60;99.90;;;;;;5067855;28;20124;-82
2023/05/18 07:50:03;;;;;;;0.03;0.03;;;13.40;99.90;;;;;;5062734;28;20530;-82
2023/05/18 07:52:29;;;;;;;0.03;0.03;;;13.60;99.90;;;;;;5043258;28;20450;-82
2023/05/18 07:54:58;;;;;;;0.00;0.00;;;14.10;1.00;;;;;;5046941;28;20048;-82
2023/05/18 07:57:24;;;;;;;0.52;0.43;;;14.50;1.00;;;;;;5047700;28;20053;-82
2023/05/18 07:59:50;;;;;;;3.60;0.35;;;14.50;1.00;;;;;;5045274;28;20144;-81
2023/05/18 08:02:18;;;;;;;0.00;0.00;;;14.40;1.00;;;;;;5045142;28;20551;-81
2023/05/18 08:04:44;;;;;;;0.57;0.38;;;14.40;1.00;;;;;;5046996;28;20053;-81
2023/05/18 08:07:11;;;;;;;0.00;0.00;;;15.00;1.00;;;;;;5046059;28;20068;-81
2023/05/18 08:09:37;;;;;;;0.17;0.17;;;15.20;1.00;;;;;;5046738;28;20185;-81
2023/05/18 08:12:04;;;;;;;0.30;0.17;;;15.10;1.00;;;;;;5047952;28;20045;-82
2023/05/18 08:14:30;;;;;;;0.00;0.00;;;15.90;1.00;;;;;;5049603;28;20049;-81
2023/05/18 08:16:55;;;;;;;0.00;0.00;;;16.40;1.00;;;;;;5049392;28;20095;-81
2023/05/18 08:19:21;;;;;;;1.13;0.75;;;16.90;1.00;;;;;;5053335;28;20052;-81
2023/05/18 08:21:47;;;;;;;0.22;0.22;;;17.30;1.00;;;;;;5051170;28;20056;-82
2023/05/18 08:24:12;;;;;;;0.35;0.32;;;16.30;1.00;;;;;;5052981;28;20048;-81
2023/05/18 08:26:38;;;;;;;0.10;0.10;;;17.10;1.00;;;;;;5056622;28;20092;-82
2023/05/18 08:29:08;;;;;;;0.20;0.17;;;17.30;1.00;;;;;;5049658;28;20264;-82
2023/05/18 08:31:41;;;;;;;0.80;0.52;;;17.40;1.00;;;;;;5048226;28;20147;-82
2023/05/18 08:34:07;;;;;;;0.00;0.00;;;17.40;1.00;;;;;;5052311;28;20324;-82
2023/05/18 08:36:34;;;;;;;0.15;0.15;;;17.50;1.00;;;;;;5047550;28;20084;-82
2023/05/18 08:39:04;;;;;;;2.65;0.80;;;17.20;1.00;;;;;;5031205;28;20061;-81
2023/05/18 08:41:34;;;;;;;0.52;0.52;;;17.50;1.00;;;;;;5031015;28;20049;-82
2023/05/18 08:44:04;;;;;;;0.10;0.10;;;17.80;1.00;;;;;;5030014;28;20101;-81
2023/05/18 08:46:38;;;;;;;2.30;0.80;;;17.50;1.00;;;;;;5035809;28;20095;-80
2023/05/18 08:49:05;;;;;;;0.75;0.30;;;17.50;1.00;;;;;;5051822;28;20068;-81
2023/05/18 08:51:34;;;;;;;0.20;0.15;;;17.30;1.00;;;;;;5071766;28;20057;-82
2023/05/18 08:54:01;;;;;;;0.05;0.05;;;16.60;1.00;;;;;;5072327;28;20116;-80
2023/05/18 08:56:29;;;;;;;0.40;0.30;;;17.00;1.00;;;;;;5071156;28;20049;-81
2023/05/18 08:58:56;;;;;;;0.35;0.20;;;16.50;1.00;;;;;;5072406;28;20087;-81
2023/05/18 09:01:28;;;;;;;0.00;0.00;;;16.60;1.00;;;;;;5072179;28;20021;-81
2023/05/18 09:03:55;;;;;;;0.00;0.00;;;16.50;1.00;;;;;;5072116;28;20021;-81
2023/05/18 09:06:23;;;;;;;0.00;0.00;;;16.80;1.00;;;;;;5072094;28;20113;-81
2023/05/18 09:08:52;;;;;;;0.13;0.13;;;16.70;1.00;;;;;;5071631;28;20029;-81
2023/05/18 09:11:18;;;;;;;0.00;0.00;;;17.00;1.00;;;;;;5060480;28;20409;-80
2023/05/18 09:13:44;;;;;;;0.15;0.15;;;16.80;1.00;;;;;;5059090;28;20110;-81
2023/05/18 09:16:09;;;;;;;0.20;0.20;;;17.30;1.00;;;;;;5060113;28;20041;-81
2023/05/18 09:18:38;;;;;;;0.00;0.00;;;18.70;1.00;;;;;;5059869;28;20048;-82
2023/05/18 09:21:03;;;;;;;0.00;0.00;;;18.80;1.00;;;;;;5040769;28;20053;-82
2023/05/18 09:23:29;;;;;;;4.30;0.65;;;17.80;1.00;;;;;;5055213;28;20049;-81
2023/05/18 09:25:57;;;;;;;0.00;0.00;;;16.60;99.90;;;;;;5056276;28;20075;-81
2023/05/18 09:28:32;;;;;;;0.15;0.15;;;17.10;1.00;;;;;;5054883;28;20057;-80
2023/05/18 09:30:57;;;;;;;0.10;0.10;;;18.10;1.00;;;;;;5055645;28;20072;-81
2023/05/18 09:33:23;;;;;;;0.47;0.17;;;18.80;1.00;;;;;;5054009;28;20048;-81
2023/05/18 09:35:50;;;;;;;0.03;0.03;;;20.20;1.00;;;;;;5058694;28;20041;-81
2023/05/18 09:38:20;;;;;;;0.88;0.60;;;18.70;1.00;;;;;;5056235;28;20045;-80
2023/05/18 09:40:47;;;;;;;0.00;0.00;;;18.90;1.00;;;;;;5056194;28;20119;-81
2023/05/18 09:43:13;;;;;;;0.20;0.20;;;19.20;1.00;;;;;;5057818;28;20049;-80
2023/05/18 09:45:43;;;;;;;0.47;0.20;;;18.90;1.00;;;;;;5057260;28;20043;-82
2023/05/18 09:48:09;;;;;;;0.10;0.10;;;18.40;1.00;;;;;;5059887;28;20049;-80
2023/05/18 09:50:36;;;;;;;0.08;0.00;;;18.40;1.00;;;;;;5055667;28;20045;-80
2023/05/18 09:53:07;;;;;;;0.30;0.25;;;18.60;1.00;;;;;;5055585;28;20083;-81
2023/05/18 09:55:37;;;;;;;0.00;0.00;;;18.70;1.00;;;;;;5057465;28;20651;-82
2023/05/18 09:58:06;;;;;;;0.00;0.00;;;18.60;1.00;;;;;;5055279;28;20166;-81
2023/05/18 10:00:35;;;;;;;0.10;0.10;;;18.70;1.00;;;;;;5055233;28;20071;-80
2023/05/18 10:03:02;;;;;;;5.00;0.82;;;19.20;1.00;;;;;;5056331;28;20061;-80
2023/05/18 10:05:32;;;;;;;0.43;0.25;;;19.30;1.00;;;;;;5051720;28;20060;-81
2023/05/18 10:07:59;;;;;;;0.47;0.30;;;19.00;1.00;;;;;;5054358;28;20380;-81
2023/05/18 10:10:27;;;;;;;0.28;0.25;;;18.90;1.00;;;;;;5054265;28;20408;-81
2023/05/18 10:12:54;;;;;;;0.10;0.10;;;19.00;1.00;;;;;;5058569;28;20053;-80
2023/05/18 10:15:21;;;;;;;0.40;0.40;;;18.40;1.00;;;;;;5059277;28;20056;-81
2023/05/18 10:17:49;;;;;;;0.20;0.20;;;18.00;1.00;;;;;;5060185;28;20049;-81
2023/05/18 10:20:18;;;;;;;0.38;0.30;;;18.00;1.00;;;;;;5060903;28;20099;-80
2023/05/18 10:22:47;;;;;;;0.00;0.00;;;18.30;1.00;;;;;;5069018;28;20052;-80
2023/05/18 10:25:21;;;;;;;0.00;0.00;;;18.40;1.00;;;;;;5069730;28;20088;-81
2023/05/18 10:27:56;;;;;;;1.77;0.45;;;18.00;1.00;;;;;;5065726;28;20041;-81
2023/05/18 10:30:22;;;;;;;1.05;0.65;;;18.50;1.00;;;;;;5066029;28;20093;-80
2023/05/18 10:32:48;;;;;;;0.28;0.13;;;19.20;1.00;;;;;;5066750;28;20045;-81
2023/05/18 10:35:14;;;;;;;0.20;0.15;;;19.30;1.00;;;;;;5065017;28;20522;-81
2023/05/18 10:37:46;;;;;;;0.22;0.22;;;19.90;1.00;;;;;;5064153;28;20096;-81
2023/05/18 10:40:14;;;;;;;0.77;0.60;;;18.60;1.00;;;;;;5061280;28;20068;-81
2023/05/18 10:42:41;;;;;;;0.35;0.22;;;19.20;1.00;;;;;;5054492;28;20101;-81
2023/05/18 10:45:09;;;;;;;0.45;0.45;;;18.80;1.00;;;;;;5049065;28;20075;-81
2023/05/18 10:47:38;;;;;;;0.13;0.13;;;18.70;1.00;;;;;;5048300;28;20075;-81
2023/05/18 10:50:04;;;;;;;0.00;0.00;;;18.40;1.00;;;;;;5050120;28;20052;-80
2023/05/18 10:52:31;;;;;;;0.13;0.10;;;18.40;1.00;;;;;;5047877;28;20183;-79
2023/05/18 10:55:00;;;;;;;0.77;0.43;;;18.80;1.00;;;;;;5049530;28;20114;-82
2023/05/18 10:57:47;;;;;;;0.00;0.00;;;18.20;1.00;;;;;;5049425;28;20049;-81
2023/05/18 11:00:13;;;;;;;0.00;0.00;;;18.50;1.00;;;;;;5048453;28;20053;-81
2023/05/18 11:02:41;;;;;;;0.10;0.10;;;18.70;1.00;;;;;;5049355;28;20115;-80
2023/05/18 11:05:08;;;;;;;0.00;0.00;;;18.70;1.00;;;;;;5049255;28;20507;-81
2023/05/18 11:07:34;;;;;;;0.00;0.00;;;18.90;1.00;;;;;;5047848;28;20069;-81
2023/05/18 11:10:08;;;;;;;0.00;0.00;;;18.40;1.00;;;;;;5047914;28;20561;-81
2023/05/18 11:12:37;;;;;;;0.25;0.22;;;18.60;1.00;;;;;;5048687;28;20067;-80
2023/05/18 11:15:04;;;;;;;2.08;0.80;;;18.60;1.00;;;;;;5048943;28;20055;-81
2023/05/18 11:17:29;;;;;;;3.83;1.05;;;18.60;1.00;;;;;;5048147;28;20045;-81
2023/05/18 11:20:05;;;;;;;0.98;0.82;;;19.00;1.00;;;;;;5047217;28;20067;-82
2023/05/18 11:22:47;;;;;;;0.55;0.47;;;18.70;1.00;;;;;;5047470;28;20049;-81
2023/05/18 11:25:27;;;;;;;0.17;0.17;;;18.70;1.00;;;;;;5048463;28;20131;-80
2023/05/18 11:28:04;;;;;;;0.47;0.30;;;18.80;1.00;;;;;;5048729;28;20045;-81
2023/05/18 11:30:33;;;;;;;1.08;0.60;;;18.80;1.00;;;;;;5048067;28;20136;-80
2023/05/18 11:33:13;;;;;;;0.30;0.20;;;19.00;1.00;;;;;;5046511;28;20053;-80
2023/05/18 11:36:13;;;;;;;5.47;0.90;;;19.20;1.00;;;;;;5049888;28;20089;-80
2023/05/18 11:38:54;;;;;;;0.00;0.00;;;18.70;1.00;;;;;;5046997;28;20080;-81
2023/05/18 11:41:25;;;;;;;0.68;0.25;;;18.60;1.00;;;;;;5047796;28;20061;-81
2023/05/18 11:44:10;;;;;;;0.38;0.38;;;18.90;1.00;;;;;;5050345;28;20325;-80
2023/05/18 11:46:36;;;;;;;1.00;0.43;;;19.00;1.00;;;;;;5060356;28;20052;-81
2023/05/18 11:49:05;;;;;;;0.00;0.00;;;19.30;1.00;;;;;;5063114;28;20084;-80
2023/05/18 11:51:32;;;;;;;0.52;0.22;;;20.00;1.00;;;;;;5062603;28;20044;-80
2023/05/18 11:53:58;;;;;;;0.00;0.00;;;20.20;1.00;;;;;;5062625;28;20076;-81
2023/05/18 11:56:25;;;;;;;1.38;0.38;;;20.50;1.00;;;;;;5062911;28;20052;-80
2023/05/18 11:59:11;;;;;;;0.00;0.00;;;20.40;1.00;;;;;;5059438;28;20053;-80
2023/05/18 12:01:37;;;;;;;0.10;0.10;;;20.50;1.00;;;;;;5055926;28;20056;-80
2023/05/18 12:04:03;;;;;;;0.00;0.00;;;21.00;1.00;;;;;;5050410;28;20045;-81
2023/05/18 12:06:29;;;;;;;0.25;0.17;;;20.70;1.00;;;;;;5037468;28;20104;-80
2023/05/18 12:08:55;;;;;;;4.45;0.85;;;20.70;1.00;;;;;;5074361;28;20032;-81
2023/05/18 12:11:21;;;;;;;0.25;0.25;;;20.50;1.00;;;;;;5074129;28;20059;-81
2023/05/18 12:13:50;;;;;;;1.02;0.57;;;21.10;1.00;;;;;;5074151;28;20029;-81
2023/05/18 12:16:16;;;;;;;0.43;0.17;;;21.30;1.00;;;;;;5074673;28;20025;-80
2023/05/18 12:18:48;;;;;;;0.00;0.00;;;21.40;1.00;;;;;;5074156;28;20025;-80
2023/05/18 12:21:15;;;;;;;0.20;0.20;;;21.70;1.00;;;;;;5073881;28;20033;-81
2023/05/18 12:23:41;;;;;;;1.42;0.70;;;22.20;1.00;;;;;;5065459;28;20049;-81
2023/05/18 12:26:07;;;;;;;0.20;0.20;;;22.10;1.00;;;;;;5063524;28;20056;-81
2023/05/18 12:28:32;;;;;;;0.60;0.28;;;22.60;1.00;;;;;;5060226;28;20068;-80
2023/05/18 12:30:58;;;;;;;0.73;0.45;;;22.60;1.00;;;;;;5059279;28;20044;-81
2023/05/18 12:33:24;;;;;;;0.00;0.00;;;22.20;1.00;;;;;;5059328;28;20055;-81
2023/05/18 12:35:53;;;;;;;1.13;0.15;;;20.70;1.00;;;;;;5060924;28;20132;-81
2023/05/18 12:38:19;;;;;;;0.03;0.03;;;20.60;1.00;;;;;;5059102;28;20103;-81
2023/05/18 12:40:47;;;;;;;0.25;0.25;;;20.90;1.00;;;;;;5059139;28;20936;-81
2023/05/18 12:43:13;;;;;;;0.52;0.52;;;21.20;1.00;;;;;;5060427;28;20071;-81
2023/05/18 12:45:39;;;;;;;0.40;0.40;;;21.90;1.00;;;;;;5058855;28;20550;-81
2023/05/18 12:48:09;;;;;;;0.75;0.35;;;22.20;1.00;;;;;;5059517;28;20049;-79
2023/05/18 12:50:37;;;;;;;0.25;0.22;;;21.60;1.00;;;;;;5040530;28;20155;-81
2023/05/18 12:53:03;;;;;;;1.08;0.50;;;20.10;1.00;;;;;;5059690;28;20359;-81
2023/05/18 12:55:30;;;;;;;0.30;0.28;;;20.00;1.00;;;;;;5057032;28;20041;-81
2023/05/18 12:58:04;;;;;;;0.57;0.50;;;20.20;1.00;;;;;;5058120;28;20041;-80
2023/05/18 13:00:34;;;;;;;0.00;0.00;;;21.30;1.00;;;;;;5054504;28;20049;-81